Time;durP1;ratioP1;P1;durP2;ratioP2;P2;SDS_P1;SDS_P2;PMS_P1;PMS_P2;Temp;Humidity;BMP_temperature;BMP_pressure;BME280_temperature;BME280_humidity;BME280_pressure;Samples;Min_cycle;Max_cycle;Signal;HPM_P1;HPM_P2
2023/03/28 00:00:25;;;;;;;0.97;0.90;;;;;;;17.13;48.32;97500.19;10383391;28;20033;-30
2023/03/28 00:05:26;;;;;;;1.97;0.80;;;;;;;17.15;48.64;97505.28;10372849;28;20033;-30
2023/03/28 00:10:27;;;;;;;1.20;0.80;;;;;;;17.13;48.25;97507.78;10377407;28;20034;-30
2023/03/28 00:15:27;;;;;;;2.05;0.90;;;;;;;17.16;48.65;97512.88;10368420;28;20038;-29
2023/03/28 00:20:28;;;;;;;1.38;0.90;;;;;;;17.22;48.26;97510.47;10381071;28;20030;-30
2023/03/28 00:25:33;;;;;;;1.30;0.88;;;;;;;17.23;48.17;97517.25;10368425;28;20075;-30
2023/03/28 00:30:34;;;;;;;1.15;0.90;;;;;;;17.18;48.45;97513.78;10380429;28;20085;-29
2023/03/28 00:35:34;;;;;;;1.95;0.80;;;;;;;17.12;48.67;97517.88;10371493;28;20080;-29
2023/03/28 00:40:37;;;;;;;0.90;0.77;;;;;;;17.11;48.39;97517.03;10382374;28;20525;-29
2023/03/28 00:45:38;;;;;;;2.35;1.15;;;;;;;17.11;48.21;97522.09;10347989;28;20418;-29
2023/03/28 00:50:45;;;;;;;1.35;0.90;;;;;;;17.10;48.21;97529.66;10389602;28;20026;-29
2023/03/28 00:55:50;;;;;;;1.23;0.85;;;;;;;17.12;48.37;97525.47;10361438;28;20481;-29
2023/03/28 01:00:51;;;;;;;0.70;0.70;;;;;;;17.11;47.99;97521.22;10363635;28;20044;-29
2023/03/28 01:05:52;;;;;;;1.70;1.05;;;;;;;17.08;48.49;97536.38;10350096;28;20027;-30
2023/03/28 01:10:53;;;;;;;1.00;0.85;;;;;;;17.09;48.00;97536.38;10352187;28;20030;-29
2023/03/28 01:15:53;;;;;;;3.67;1.00;;;;;;;17.08;47.89;97536.38;10369098;28;20095;-30
2023/03/28 01:21:21;;;;;;;1.38;0.85;;;;;;;17.10;48.06;97534.72;10367000;28;20044;-30
2023/03/28 01:26:44;;;;;;;1.13;0.93;;;;;;;17.07;48.30;97529.59;10361312;28;20477;-29
2023/03/28 01:32:15;;;;;;;1.00;0.70;;;;;;;17.16;48.25;97530.59;10371666;28;20404;-30
2023/03/28 01:37:57;;;;;;;1.67;1.10;;;;;;;17.20;48.39;97534.03;10366772;28;20031;-30
2023/03/28 01:43:08;;;;;;;1.33;1.00;;;;;;;17.11;47.96;97531.34;10352379;28;20037;-30
2023/03/28 01:48:37;;;;;;;1.17;0.70;;;;;;;17.10;48.23;97532.19;10352680;28;20038;-30
2023/03/28 01:53:45;;;;;;;1.08;0.85;;;;;;;17.07;47.99;97535.50;10351488;28;20033;-29
2023/03/28 01:58:57;;;;;;;0.73;0.70;;;;;;;17.05;48.44;97531.22;10386106;28;20416;-30
2023/03/28 02:04:13;;;;;;;0.95;0.60;;;;;;;17.04;47.95;97529.53;10352700;28;20490;-29
2023/03/28 02:09:28;;;;;;;1.67;0.65;;;;;;;17.06;47.75;97520.31;10381550;28;20125;-30
2023/03/28 02:14:52;;;;;;;1.02;0.88;;;;;;;17.04;48.37;97514.34;10336606;28;20743;-29
2023/03/28 02:20:35;;;;;;;1.88;0.90;;;;;;;17.03;48.29;97508.44;10225190;29;20074;-29
2023/03/28 02:26:02;;;;;;;1.20;0.93;;;;;;;17.08;46.97;97519.50;10346289;28;20037;-30
2023/03/28 02:31:13;;;;;;;1.23;0.90;;;;;;;17.12;46.44;97502.69;10358854;28;20091;-29
2023/03/28 02:36:29;;;;;;;1.13;0.98;;;;;;;17.11;47.58;97499.31;10369634;28;20048;-29
2023/03/28 02:42:03;;;;;;;1.88;1.20;;;;;;;17.21;47.51;97492.72;10374746;28;20099;-29
2023/03/28 02:47:06;;;;;;;1.35;0.98;;;;;;;17.23;47.61;97491.09;10356509;28;20494;-29
2023/03/28 02:52:39;;;;;;;1.00;0.90;;;;;;;17.22;47.00;97489.38;10374001;28;20041;-29
2023/03/28 02:57:52;;;;;;;1.92;0.80;;;;;;;17.15;47.03;97482.53;10354900;28;20087;-30
2023/03/28 03:02:52;;;;;;;1.02;0.60;;;;;;;17.12;46.60;97473.19;10354843;28;20038;-29
2023/03/28 03:07:53;;;;;;;1.05;0.77;;;;;;;17.13;46.54;97471.50;10375085;28;20041;-29
2023/03/28 03:12:53;;;;;;;2.00;0.87;;;;;;;17.13;46.69;97468.97;10360299;28;20037;-29
2023/03/28 03:17:54;;;;;;;0.98;0.75;;;;;;;17.13;46.59;97468.97;10351491;28;20038;-29
2023/03/28 03:23:00;;;;;;;1.13;1.00;;;;;;;17.09;46.85;97464.69;10371897;28;20045;-29
2023/03/28 03:28:02;;;;;;;1.90;1.00;;;;;;;17.07;46.67;97458.75;10347091;28;20070;-29
2023/03/28 03:33:04;;;;;;;2.10;1.27;;;;;;;17.09;47.00;97469.75;10345646;28;20034;-29
2023/03/28 03:38:05;;;;;;;0.77;0.70;;;;;;;17.04;47.44;97469.69;10345563;28;20030;-29
2023/03/28 03:43:05;;;;;;;1.23;0.80;;;;;;;17.06;46.86;97460.44;10349583;28;20093;-30
2023/03/28 03:48:08;;;;;;;1.00;0.70;;;;;;;17.10;46.10;97463.88;10345581;28;20038;-29
2023/03/28 03:53:09;;;;;;;0.98;0.75;;;;;;;17.16;46.56;97469.88;10363977;28;20029;-29
2023/03/28 03:58:14;;;;;;;0.93;0.60;;;;;;;17.22;45.41;97474.19;10359103;28;20026;-29
2023/03/28 04:03:15;;;;;;;1.02;0.85;;;;;;;17.25;45.39;97471.72;10358434;28;20030;-29
2023/03/28 04:08:16;;;;;;;1.47;0.83;;;;;;;17.17;45.66;97478.34;10375838;28;20041;-29
2023/03/28 04:13:16;;;;;;;0.88;0.70;;;;;;;17.23;44.94;97486.88;10381032;28;20303;-29
2023/03/28 04:18:22;;;;;;;0.63;0.63;;;;;;;17.21;45.49;97480.06;10351691;28;20040;-29
2023/03/28 04:23:26;;;;;;;2.50;0.68;;;;;;;17.16;45.24;97494.34;10357701;28;20041;-29
2023/03/28 04:28:27;;;;;;;1.05;0.52;;;;;;;17.25;44.70;97497.88;10357944;28;20030;-29
2023/03/28 04:33:33;;;;;;;2.33;0.88;;;;;;;17.26;43.26;97498.72;10350295;28;20053;-29
2023/03/28 04:38:35;;;;;;;1.95;0.98;;;;;;;17.24;44.21;97502.91;10357538;28;20084;-30
2023/03/28 04:43:51;;;;;;;2.15;1.08;;;;;;;17.26;44.20;97506.31;10352081;28;20022;-29
2023/03/28 04:48:51;;;;;;;2.20;0.80;;;;;;;17.15;44.77;97505.28;10376014;28;20037;-30
2023/03/28 04:53:59;;;;;;;1.17;0.77;;;;;;;17.07;43.43;97504.31;10348065;28;20523;-29
2023/03/28 04:59:28;;;;;;;2.55;0.70;;;;;;;17.04;43.67;97507.63;10354266;28;20498;-29
2023/03/28 05:04:30;;;;;;;4.68;1.10;;;;;;;17.16;44.61;97514.59;10350599;28;20498;-30
2023/03/28 05:09:32;;;;;;;2.60;1.20;;;;;;;17.17;45.05;97521.34;10350799;28;20064;-30
2023/03/28 05:14:32;;;;;;;1.95;0.93;;;;;;;17.22;46.46;97524.78;10359235;28;20033;-31
2023/03/28 05:19:47;;;;;;;1.80;0.70;;;;;;;17.18;46.47;97533.16;10356688;28;20044;-30
2023/03/28 05:24:51;;;;;;;1.30;0.63;;;;;;;17.15;46.45;97538.19;10351697;28;20056;-30
2023/03/28 05:29:56;;;;;;;10.20;1.75;;;;;;;16.89;42.31;97539.38;10364200;28;20236;-30
2023/03/28 05:34:56;;;;;;;6.45;1.67;;;;;;;16.23;41.39;97543.03;10350176;28;20030;-30
2023/03/28 05:40:05;;;;;;;5.38;1.98;;;;;;;16.65;42.28;97543.97;10351272;28;20091;-30
2023/03/28 05:45:07;;;;;;;4.35;1.20;;;;;;;16.73;42.64;97545.81;10366568;28;20076;-30
2023/03/28 05:50:28;;;;;;;2.75;0.82;;;;;;;16.80;43.56;97547.63;10368874;28;20037;-29
2023/03/28 05:55:40;;;;;;;2.72;0.88;;;;;;;16.83;43.76;97551.91;10362049;28;20498;-30
2023/03/28 06:00:41;;;;;;;3.00;0.77;;;;;;;16.82;43.83;97547.66;10377707;28;20042;-30
2023/03/28 06:05:42;;;;;;;1.40;1.00;;;;;;;16.88;43.89;97555.34;10357669;28;20056;-30
2023/03/28 06:10:51;;;;;;;4.55;1.17;;;;;;;16.88;44.26;97562.94;10351742;28;20057;-30
2023/03/28 06:15:55;;;;;;;2.13;1.23;;;;;;;16.85;44.11;97561.22;10347481;28;20418;-29
2023/03/28 06:21:04;;;;;;;1.30;0.90;;;;;;;17.03;43.48;97563.25;10361314;28;20069;-30
2023/03/28 06:26:05;;;;;;;3.40;0.90;;;;;;;17.06;43.92;97569.22;10357723;28;20083;-29
2023/03/28 06:31:13;;;;;;;1.48;0.90;;;;;;;16.99;44.28;97572.44;10355484;28;20029;-30
2023/03/28 06:36:15;;;;;;;1.83;0.80;;;;;;;16.94;43.67;97580.78;10350898;28;20485;-29
2023/03/28 06:41:16;;;;;;;1.77;1.08;;;;;;;16.90;44.24;97576.50;10353179;28;20030;-30
2023/03/28 06:46:16;;;;;;;2.70;1.00;;;;;;;16.92;43.97;97583.25;10367687;28;20049;-29
2023/03/28 06:51:18;;;;;;;2.63;0.90;;;;;;;16.93;43.97;97576.53;10345638;28;20285;-30
2023/03/28 06:56:19;;;;;;;1.83;1.20;;;;;;;16.93;44.27;97571.47;10349104;28;20026;-31
2023/03/28 07:01:20;;;;;;;2.38;1.00;;;;;;;16.91;44.13;97575.66;10376430;28;20034;-30
2023/03/28 07:06:28;;;;;;;4.22;1.10;;;;;;;16.90;43.75;97571.44;10359620;28;20853;-29
2023/03/28 07:11:28;;;;;;;2.65;1.27;;;;;;;16.91;44.20;97568.09;10367779;28;20062;-30
2023/03/28 07:16:29;;;;;;;2.17;1.30;;;;;;;16.87;44.32;97568.81;10360660;28;20132;-30
2023/03/28 07:21:29;;;;;;;1.80;1.00;;;;;;;16.87;44.33;97573.88;10360857;28;20498;-30
2023/03/28 07:26:32;;;;;;;2.05;1.08;;;;;;;16.89;44.04;97582.38;10362006;28;20395;-31
2023/03/28 07:31:33;;;;;;;3.58;1.20;;;;;;;16.97;44.24;97585.88;10357756;28;20025;-30
2023/03/28 07:36:33;;;;;;;2.13;1.30;;;;;;;17.07;43.31;97580.19;10355137;28;20068;-30
2023/03/28 07:41:42;;;;;;;2.58;1.13;;;;;;;17.07;43.96;97577.66;10363430;28;20064;-30
2023/03/28 07:46:43;;;;;;;2.50;1.10;;;;;;;16.99;44.32;97581.72;10361770;28;20038;-30
2023/03/28 07:51:43;;;;;;;1.63;1.03;;;;;;;16.95;43.99;97583.34;10376607;28;20292;-30
2023/03/28 07:56:44;;;;;;;2.00;1.03;;;;;;;16.92;44.02;97577.38;10363961;28;20030;-30
2023/03/28 08:01:55;;;;;;;2.55;1.10;;;;;;;16.91;44.15;97583.25;10343938;28;20045;-30
2023/03/28 08:06:56;;;;;;;2.15;1.25;;;;;;;16.90;44.27;97586.63;10354909;28;20034;-30
2023/03/28 08:11:58;;;;;;;3.33;1.20;;;;;;;16.90;43.90;97586.63;10351508;28;20053;-30
2023/03/28 08:17:01;;;;;;;1.73;1.08;;;;;;;16.94;44.38;97593.41;10362324;28;20030;-30
2023/03/28 08:22:04;;;;;;;2.10;1.05;;;;;;;16.89;44.11;97590.81;10355951;28;20469;-30
2023/03/28 08:27:12;;;;;;;4.18;1.02;;;;;;;16.88;44.25;97595.81;10349917;28;20506;-30
2023/03/28 08:32:14;;;;;;;1.60;0.90;;;;;;;16.90;44.44;97595.03;10365668;28;20029;-30
2023/03/28 08:37:15;;;;;;;2.20;1.10;;;;;;;16.91;44.10;97594.22;10360023;28;20406;-30
2023/03/28 08:42:39;;;;;;;1.77;0.90;;;;;;;16.89;44.40;97580.69;10357372;28;20085;-30
2023/03/28 08:48:07;;;;;;;2.53;0.98;;;;;;;17.03;43.71;97571.69;10362181;28;20041;-30
2023/03/28 08:53:25;;;;;;;2.03;1.20;;;;;;;17.05;44.20;97571.72;10358755;28;20512;-30
2023/03/28 08:58:33;;;;;;;1.33;0.80;;;;;;;17.03;44.27;97574.22;10370311;28;20026;-30
2023/03/28 09:03:35;;;;;;;3.90;1.20;;;;;;;16.94;44.57;97573.19;10360090;28;20034;-30
2023/03/28 09:09:00;;;;;;;2.33;0.93;;;;;;;16.95;44.47;97570.69;10358299;28;20432;-30
2023/03/28 09:14:35;;;;;;;1.63;1.00;;;;;;;16.92;44.38;97567.25;10360697;28;20073;-30
2023/03/28 09:20:10;;;;;;;2.15;1.10;;;;;;;16.94;44.75;97563.06;10365338;28;20033;-30
2023/03/28 09:25:26;;;;;;;1.35;0.80;;;;;;;16.91;44.77;97570.59;10361487;28;20041;-30
2023/03/28 09:30:38;;;;;;;1.63;1.30;;;;;;;16.89;44.61;97577.31;10355180;28;20026;-30
2023/03/28 09:35:40;;;;;;;1.30;0.80;;;;;;;16.87;44.78;97566.31;10358075;28;20034;-30
2023/03/28 09:40:45;;;;;;;2.20;1.00;;;;;;;16.88;45.05;97565.47;10354838;28;20505;-30
2023/03/28 09:46:25;;;;;;;1.15;0.90;;;;;;;16.87;45.10;97561.25;10322900;28;20034;-30
2023/03/28 09:51:36;;;;;;;;;;;;;;;16.89;44.33;97559.63;10350232;28;20034;-30
2023/03/28 09:56:39;;;;;;;0.93;0.85;;;;;;;16.89;44.48;97559.63;10346050;28;20025;-30
2023/03/28 10:02:03;;;;;;;0.75;0.75;;;;;;;16.99;44.61;97561.50;10367408;28;20494;-30
2023/03/28 10:07:12;;;;;;;1.08;0.73;;;;;;;17.00;45.03;97546.31;10375092;28;20415;-30
2023/03/28 10:12:35;;;;;;;2.20;0.60;;;;;;;17.03;43.94;97537.94;10371704;28;20113;-30
2023/03/28 10:17:36;;;;;;;0.77;0.52;;;;;;;17.01;44.60;97539.59;10337943;28;20030;-29
2023/03/28 10:22:38;;;;;;;1.92;0.65;;;;;;;17.01;44.44;97539.59;10356073;28;20525;-29
2023/03/28 10:27:40;;;;;;;1.65;0.90;;;;;;;17.06;44.03;97532.97;10356520;28;20038;-30
2023/03/28 10:32:41;;;;;;;1.00;0.70;;;;;;;17.06;43.46;97528.75;10371074;28;20041;-30
2023/03/28 10:38:03;;;;;;;1.95;0.90;;;;;;;17.06;43.86;97522.84;10356951;28;20037;-30
2023/03/28 10:43:14;;;;;;;0.85;0.50;;;;;;;17.09;43.18;97517.81;10353424;28;20036;-30
2023/03/28 10:48:35;;;;;;;1.17;0.63;;;;;;;17.04;44.14;97522.81;10354026;28;20509;-30
2023/03/28 10:54:05;;;;;;;3.22;0.80;;;;;;;17.05;43.81;97521.97;10342916;28;20030;-30
2023/03/28 10:59:33;;;;;;;2.00;0.63;;;;;;;17.09;43.08;97517.81;10349823;28;20083;-30
2023/03/28 11:04:58;;;;;;;0.90;0.70;;;;;;;17.13;43.23;97509.44;10341541;28;20049;-30
2023/03/28 11:10:27;;;;;;;3.50;1.05;;;;;;;17.13;43.44;97496.81;10376452;28;20032;-30
2023/03/28 11:15:44;;;;;;;2.58;1.23;;;;;;;17.16;43.40;97500.25;10342374;28;20038;-30
2023/03/28 11:21:06;;;;;;;1.13;0.63;;;;;;;17.21;43.75;97500.31;10350642;28;20124;-30
2023/03/28 11:26:14;;;;;;;1.35;0.50;;;;;;;17.21;43.11;97492.72;10345264;28;20034;-29
2023/03/28 11:31:52;;;;;;;2.85;0.70;;;;;;;17.19;43.24;97479.19;10378070;28;20074;-30
2023/03/28 11:37:00;;;;;;;1.17;0.65;;;;;;;17.16;43.02;97474.09;10346134;28;20026;-30
2023/03/28 11:42:06;;;;;;;0.40;0.38;;;;;;;17.12;43.18;97463.06;10346522;28;20065;-30
2023/03/28 11:47:21;;;;;;;4.03;0.57;;;;;;;17.13;43.24;97458.84;10364766;28;20039;-30
2023/03/28 11:52:54;;;;;;;1.20;0.50;;;;;;;17.16;43.14;97448.81;10346009;28;20113;-30
2023/03/28 11:58:07;;;;;;;4.65;1.98;;;;;;;17.15;43.48;97444.56;10360260;28;20034;-30
2023/03/28 12:03:20;;;;;;;2.72;0.98;;;;;;;17.17;43.02;97420.13;10356954;28;20026;-30
2023/03/28 12:08:40;;;;;;;4.03;1.30;;;;;;;17.01;42.80;97423.25;10354509;28;20402;-30
2023/03/28 12:13:50;;;;;;;1.35;0.77;;;;;;;17.03;43.48;97412.31;10355264;28;20041;-30
2023/03/28 12:18:57;;;;;;;1.83;0.77;;;;;;;17.01;45.47;97390.34;10357112;28;20038;-30
2023/03/28 12:24:34;;;;;;;5.00;2.15;;;;;;;17.00;45.91;97391.19;10379965;28;20045;-30
2023/03/28 12:30:20;;;;;;;1.73;1.10;;;;;;;17.06;47.90;97396.34;10357800;28;20113;-30
2023/03/28 12:35:31;;;;;;;1.45;1.00;;;;;;;17.07;47.68;97388.75;10358126;28;20033;-30
2023/03/28 12:40:51;;;;;;;1.77;1.08;;;;;;;17.10;44.33;97383.78;10376856;28;20038;-30
2023/03/28 12:45:59;;;;;;;2.10;1.10;;;;;;;17.06;45.24;97376.13;10356191;28;20561;-30
2023/03/28 12:51:07;;;;;;;4.28;1.00;;;;;;;17.00;47.51;97368.41;10359413;28;20018;-30
2023/03/28 12:56:12;;;;;;;2.47;0.88;;;;;;;17.05;47.92;97349.09;10367566;28;20398;-30
2023/03/28 13:01:26;;;;;;;1.52;1.02;;;;;;;17.04;48.12;97347.38;10342470;28;20514;-30
2023/03/28 13:06:56;;;;;;;2.80;0.75;;;;;;;17.03;48.24;97346.56;10375473;28;20045;-30
2023/03/28 13:12:20;;;;;;;2.90;0.80;;;;;;;17.03;48.14;97343.16;10360543;28;20105;-30
2023/03/28 13:17:25;;;;;;;2.47;0.70;;;;;;;17.04;47.89;97327.16;10374107;28;20045;-30
2023/03/28 13:22:31;;;;;;;0.80;0.60;;;;;;;17.04;47.91;97322.97;10375184;28;20077;-30
2023/03/28 13:27:33;;;;;;;3.30;0.88;;;;;;;17.06;47.56;97326.34;10376344;28;20494;-30
2023/03/28 13:32:41;;;;;;;1.58;0.55;;;;;;;17.07;48.05;97329.75;10359072;28;20421;-30
2023/03/28 13:37:42;;;;;;;2.50;0.80;;;;;;;17.09;49.16;97320.50;10372447;28;20127;-30
2023/03/28 13:42:56;;;;;;;3.75;0.65;;;;;;;17.08;52.48;97314.56;10376824;28;20490;-30
2023/03/28 13:47:57;;;;;;;1.30;0.73;;;;;;;17.08;52.82;97301.09;10394421;28;20080;-30
2023/03/28 13:52:58;;;;;;;1.58;0.70;;;;;;;17.09;51.07;97300.25;10370329;28;20505;-30
2023/03/28 13:58:01;;;;;;;3.53;0.80;;;;;;;17.07;49.96;97282.50;10376891;28;20718;-30
2023/03/28 14:03:11;;;;;;;1.75;0.73;;;;;;;17.07;51.21;97286.75;10368686;28;20044;-30
2023/03/28 14:08:11;;;;;;;1.38;0.75;;;;;;;17.09;51.58;97280.00;10390686;28;20026;-30
2023/03/28 14:13:17;;;;;;;1.20;0.63;;;;;;;17.09;51.82;97280.84;10370346;28;20037;-30
2023/03/28 14:18:35;;;;;;;0.70;0.60;;;;;;;17.08;51.41;97273.25;10382427;28;20390;-30
2023/03/28 14:23:47;;;;;;;1.98;0.75;;;;;;;17.07;51.66;97274.91;10359997;28;20106;-30
2023/03/28 14:28:49;;;;;;;2.35;0.88;;;;;;;17.06;52.40;97265.63;10377384;28;20041;-30
2023/03/28 14:33:51;;;;;;;2.25;0.82;;;;;;;17.06;51.67;97254.69;10366961;28;20092;-30
2023/03/28 14:38:51;;;;;;;2.65;0.70;;;;;;;17.04;52.08;97246.19;10378292;28;20038;-30
2023/03/28 14:43:57;;;;;;;2.10;0.63;;;;;;;17.04;49.65;97225.97;10368840;28;20030;-30
2023/03/28 14:49:01;;;;;;;6.50;1.30;;;;;;;17.08;50.89;97237.84;10374258;28;20505;-35
2023/03/28 14:54:03;;;;;;;8.25;2.05;;;;;;;17.08;54.44;97223.50;10356368;28;20108;-30
2023/03/28 14:59:05;;;;;;;3.92;1.55;;;;;;;17.08;54.45;97222.66;10362647;28;20042;-30
2023/03/28 15:04:07;;;;;;;7.90;1.50;;;;;;;17.07;52.68;97213.38;10377693;28;20038;-30
2023/03/28 15:09:24;;;;;;;5.45;1.35;;;;;;;17.04;51.16;97208.25;10368302;28;20062;-30
2023/03/28 15:14:33;;;;;;;5.10;1.38;;;;;;;17.02;51.83;97199.81;10386741;28;20116;-30
2023/03/28 15:19:39;;;;;;;4.80;1.02;;;;;;;16.97;51.35;97198.88;10361923;28;20076;-30
2023/03/28 15:24:40;;;;;;;2.30;1.00;;;;;;;16.97;51.48;97194.69;10358388;28;20034;-30
2023/03/28 15:29:41;;;;;;;3.95;1.30;;;;;;;16.96;51.22;97194.66;10378163;28;20037;-29
2023/03/28 15:35:06;;;;;;;3.83;0.98;;;;;;;16.97;51.36;97193.81;10351817;28;20045;-30
2023/03/28 15:40:27;;;;;;;2.78;0.90;;;;;;;17.04;51.44;97191.41;10372238;28;20061;-30
2023/03/28 15:45:37;;;;;;;2.75;1.13;;;;;;;17.06;50.42;97192.28;10367652;28;20026;-30
2023/03/28 15:50:43;;;;;;;3.60;1.00;;;;;;;17.04;51.75;97190.56;10384798;28;20036;-30
2023/03/28 15:55:46;;;;;;;3.40;1.07;;;;;;;17.03;51.85;97183.78;10374581;28;20111;-30
2023/03/28 16:00:52;;;;;;;9.20;1.00;;;;;;;17.00;51.33;97176.19;10367205;28;20768;-30
2023/03/28 16:05:55;;;;;;;6.22;1.08;;;;;;;17.09;51.42;97176.28;10370749;28;20417;-30
2023/03/28 16:10:55;;;;;;;3.80;1.05;;;;;;;17.12;52.15;97172.13;10391571;28;20109;-30
2023/03/28 16:16:17;;;;;;;5.93;1.15;;;;;;;17.10;53.54;97165.34;10385548;28;20041;-29
2023/03/28 16:21:26;;;;;;;5.15;0.95;;;;;;;17.09;52.50;97164.47;10374339;28;20083;-30
2023/03/28 16:26:26;;;;;;;2.97;0.93;;;;;;;17.08;50.67;97159.41;10381521;28;20045;-30
2023/03/28 16:31:27;;;;;;;4.50;1.30;;;;;;;17.09;52.78;97156.06;10374557;28;20397;-30
2023/03/28 16:36:27;;;;;;;3.57;1.00;;;;;;;17.06;53.50;97156.88;10385817;28;20387;-31
2023/03/28 16:41:28;;;;;;;7.53;1.50;;;;;;;17.08;53.06;97151.84;10353548;28;20438;-30
2023/03/28 16:46:28;;;;;;;3.40;1.00;;;;;;;17.08;53.41;97146.78;10373693;28;20055;-30
2023/03/28 16:51:29;;;;;;;2.00;0.95;;;;;;;17.07;55.20;97150.97;10365963;28;20289;-30
2023/03/28 16:56:30;;;;;;;4.85;0.90;;;;;;;17.07;54.37;97142.53;10376917;28;20037;-30
2023/03/28 17:01:30;;;;;;;7.40;1.58;;;;;;;17.09;53.85;97148.47;10381591;28;20148;-30
2023/03/28 17:06:31;;;;;;;4.30;1.25;;;;;;;17.06;53.18;97135.78;10374894;28;20120;-30
2023/03/28 17:11:34;;;;;;;6.57;0.95;;;;;;;17.05;51.77;97131.53;10389275;28;20029;-30
2023/03/28 17:16:39;;;;;;;4.38;1.38;;;;;;;17.07;53.10;97125.66;10377181;28;20029;-30
2023/03/28 17:21:39;;;;;;;5.25;0.95;;;;;;;17.09;53.87;97113.06;10379860;28;20041;-30
2023/03/28 17:26:39;;;;;;;1.53;0.80;;;;;;;17.07;53.26;97119.78;10361787;28;20038;-30
2023/03/28 17:31:40;;;;;;;5.20;0.80;;;;;;;17.06;51.88;97118.09;10380146;28;20284;-30
2023/03/28 17:36:41;;;;;;;4.53;0.80;;;;;;;17.06;50.26;97123.97;10368179;28;20040;-30
2023/03/28 17:41:41;;;;;;;4.75;0.90;;;;;;;17.03;52.10;97123.94;10364915;28;20038;-30
2023/03/28 17:46:43;;;;;;;2.35;1.00;;;;;;;17.05;51.20;97131.53;10369919;28;20038;-30
2023/03/28 17:51:43;;;;;;;3.25;0.70;;;;;;;17.05;52.64;97116.34;10376204;28;20046;-30
2023/03/28 17:56:44;;;;;;;5.03;1.15;;;;;;;17.07;51.81;97107.97;10367768;28;20041;-30
2023/03/28 18:01:44;;;;;;;2.73;0.70;;;;;;;17.10;51.32;97095.38;10367558;28;20030;-30
2023/03/28 18:06:44;;;;;;;3.47;1.33;;;;;;;17.07;50.07;97079.31;10375095;28;20102;-30
2023/03/28 18:11:46;;;;;;;2.47;1.13;;;;;;;17.07;51.88;97080.13;10383576;28;20188;-30
2023/03/28 18:16:47;;;;;;;4.57;1.23;;;;;;;17.07;51.75;97084.38;10374065;28;20044;-30
2023/03/28 18:21:48;;;;;;;5.78;1.15;;;;;;;17.00;50.36;97082.59;10381206;28;20039;-30
2023/03/28 18:26:48;;;;;;;4.43;1.10;;;;;;;16.99;52.27;97080.91;10377032;28;20096;-30
2023/03/28 18:31:49;;;;;;;3.83;0.97;;;;;;;17.10;53.95;97059.09;10383890;28;20514;-30
2023/03/28 18:36:50;;;;;;;4.90;0.93;;;;;;;17.05;54.05;97041.34;10366944;28;20494;-29
2023/03/28 18:41:50;;;;;;;2.42;0.90;;;;;;;17.03;52.24;97052.25;10379100;28;20041;-30
2023/03/28 18:46:53;;;;;;;4.95;0.90;;;;;;;16.98;51.86;97043.78;10388002;28;20703;-30
2023/03/28 18:51:54;;;;;;;5.72;1.02;;;;;;;16.92;51.15;97044.56;10383349;28;20030;-30
2023/03/28 18:56:54;;;;;;;1.90;1.10;;;;;;;16.88;51.10;97057.16;10372409;28;20084;-31
2023/03/28 19:01:55;;;;;;;6.13;0.80;;;;;;;16.83;50.74;97046.16;10369467;28;20042;-30
2023/03/28 19:06:56;;;;;;;3.58;1.42;;;;;;;16.92;50.37;97058.91;10363129;28;20300;-29
2023/03/28 19:11:56;;;;;;;1.20;1.05;;;;;;;17.00;49.74;97062.34;10377125;28;20057;-30
2023/03/28 19:16:57;;;;;;;4.32;1.23;;;;;;;16.90;49.74;97080.78;10359308;28;20042;-30
2023/03/28 19:21:57;;;;;;;3.45;1.60;;;;;;;16.88;49.99;97088.34;10356615;28;20050;-30
2023/03/28 19:26:58;;;;;;;2.40;1.40;;;;;;;16.86;50.31;97074.00;10382949;28;20038;-30
2023/03/28 19:31:58;;;;;;;4.13;1.30;;;;;;;16.78;50.55;97094.13;10380744;28;20406;-30
2023/03/28 19:36:59;;;;;;;1.60;1.30;;;;;;;16.79;50.56;97092.44;10379459;28;20045;-30
2023/03/28 19:41:59;;;;;;;4.93;1.10;;;;;;;16.89;50.84;97094.28;10358176;28;20042;-30
2023/03/28 19:46:59;;;;;;;3.13;1.40;;;;;;;16.96;52.08;97085.91;10380767;28;20048;-30
2023/03/28 19:52:00;;;;;;;2.67;1.30;;;;;;;17.03;50.84;97075.03;10379187;28;20142;-30
2023/03/28 19:57:01;;;;;;;4.13;1.58;;;;;;;16.90;50.29;97078.28;10340155;28;20298;-29
2023/03/28 20:02:01;;;;;;;2.40;1.25;;;;;;;16.82;50.40;97100.09;10351557;28;20132;-30
2023/03/28 20:07:01;;;;;;;1.27;1.10;;;;;;;16.77;50.17;97079.81;10360981;28;21766;-30
2023/03/28 20:12:02;;;;;;;1.97;1.10;;;;;;;16.78;50.03;97080.63;10374671;28;20290;-30
2023/03/28 20:17:03;;;;;;;2.47;1.50;;;;;;;16.79;49.55;97042.72;10373141;28;20029;-30
2023/03/28 20:22:06;;;;;;;2.35;1.38;;;;;;;16.78;49.79;97047.75;10381229;28;20061;-30
2023/03/28 20:27:06;;;;;;;1.92;1.08;;;;;;;16.86;49.85;97053.75;10372662;28;20766;-30
2023/03/28 20:32:07;;;;;;;2.70;1.15;;;;;;;16.86;49.81;97043.63;10377727;28;20033;-29
2023/03/28 20:37:07;;;;;;;2.05;1.23;;;;;;;16.88;49.74;97052.09;10380642;28;20038;-30
2023/03/28 20:42:07;;;;;;;2.60;1.40;;;;;;;16.88;49.66;97074.84;10367169;28;20112;-30
2023/03/28 20:47:09;;;;;;;2.37;1.40;;;;;;;16.86;50.92;97066.41;10364701;28;20652;-29
2023/03/28 20:52:10;;;;;;;2.05;1.75;;;;;;;16.86;51.08;97068.94;10380373;28;20766;-30
2023/03/28 20:57:10;;;;;;;3.35;1.50;;;;;;;16.88;52.92;97068.13;10386070;28;20029;-30
2023/03/28 21:02:11;;;;;;;1.60;1.20;;;;;;;16.91;53.45;97067.31;10386284;28;20029;-30
2023/03/28 21:07:12;;;;;;;2.13;1.27;;;;;;;16.88;51.91;97054.63;10373831;28;20038;-30
2023/03/28 21:12:13;;;;;;;2.17;1.10;;;;;;;16.86;52.36;97053.75;10364139;28;20034;-30
2023/03/28 21:17:24;;;;;;;3.77;1.73;;;;;;;16.85;51.35;97016.66;10379241;28;20067;-29
2023/03/28 21:22:24;;;;;;;1.00;0.80;;;;;;;16.89;50.78;97014.19;10388299;28;20041;-30
2023/03/28 21:27:25;;;;;;;1.40;0.80;;;;;;;16.92;50.73;97008.31;10387021;28;20037;-29
2023/03/28 21:32:27;;;;;;;2.05;1.00;;;;;;;16.91;51.85;97004.91;10380366;28;20378;-30
2023/03/28 21:37:27;;;;;;;3.42;1.00;;;;;;;16.88;51.81;96994.78;10382844;28;20096;-30
2023/03/28 21:42:27;;;;;;;1.33;0.97;;;;;;;16.88;51.55;97016.69;10380583;28;20490;-30
2023/03/28 21:47:28;;;;;;;2.67;1.17;;;;;;;16.83;51.85;97013.28;10388599;28;20325;-30
2023/03/28 21:52:28;;;;;;;1.97;0.97;;;;;;;16.80;51.80;97005.63;10370093;28;20029;-30
2023/03/28 21:57:28;;;;;;;1.50;0.97;;;;;;;16.87;51.84;97020.03;10381469;28;20494;-30
2023/03/28 22:02:29;;;;;;;2.47;1.27;;;;;;;16.85;51.64;97020.06;10368934;28;20580;-30
2023/03/28 22:07:29;;;;;;;1.35;0.70;;;;;;;16.88;51.99;97020.06;10377985;28;20522;-30
2023/03/28 22:12:30;;;;;;;3.17;1.00;;;;;;;16.95;53.30;97023.50;10378952;28;20075;-30
2023/03/28 22:17:33;;;;;;;2.70;0.90;;;;;;;16.97;53.71;97010.06;10386179;28;20282;-30
2023/03/28 22:22:34;;;;;;;1.35;1.00;;;;;;;16.89;52.12;96995.66;10379711;28;20029;-30
2023/03/28 22:27:35;;;;;;;2.28;1.15;;;;;;;16.88;51.75;96976.22;10390838;28;20053;-30
2023/03/28 22:32:36;;;;;;;3.50;1.00;;;;;;;16.83;52.32;96947.53;10381501;28;20501;-30
2023/03/28 22:37:36;;;;;;;1.05;0.80;;;;;;;16.78;51.56;96912.09;10382297;28;20463;-30
2023/03/28 22:42:37;;;;;;;1.65;0.77;;;;;;;16.75;51.79;96919.63;10384410;28;20409;-30
2023/03/28 22:47:40;;;;;;;2.88;0.98;;;;;;;16.81;51.43;96944.16;10383127;28;20575;-30
2023/03/28 22:52:41;;;;;;;1.02;0.70;;;;;;;16.79;51.43;96941.59;10383829;28;20037;-30
2023/03/28 22:57:42;;;;;;;1.37;0.87;;;;;;;16.81;51.25;96944.16;10395780;28;20045;-30
2023/03/28 23:02:43;;;;;;;1.23;0.77;;;;;;;16.80;51.13;96944.94;10376626;28;20030;-30
2023/03/28 23:07:43;;;;;;;1.33;0.77;;;;;;;16.82;51.53;96950.91;10393549;28;20566;-30
2023/03/28 23:12:46;;;;;;;1.43;0.90;;;;;;;16.87;50.84;96954.31;10376833;28;20450;-30
2023/03/28 23:17:46;;;;;;;1.55;0.90;;;;;;;16.88;50.91;96945.88;10378507;28;20275;-30
2023/03/28 23:22:47;;;;;;;0.85;0.73;;;;;;;16.90;52.62;96951.81;10384692;28;20101;-30
2023/03/28 23:27:48;;;;;;;1.63;0.80;;;;;;;16.93;52.56;96951.84;10378090;28;20050;-30
2023/03/28 23:32:48;;;;;;;1.77;0.70;;;;;;;16.93;51.32;96949.31;10353913;28;20030;-30
2023/03/28 23:37:51;;;;;;;1.77;0.87;;;;;;;16.85;51.61;96946.72;10357976;28;20284;-30
2023/03/28 23:42:52;;;;;;;0.70;0.70;;;;;;;16.85;51.38;96940.81;10397080;28;20791;-30